Tiempo atmosférico en la estación meteorológica de Espolla, Girona (94 m.)



Fecha
DESCASC
Temp. máxima en grados centígrados (hora)
DESCASC
Temp. mínima en grados centígrados (hora)
DESCASC
Temp. media en grados centígrados
DESCASC
Racha de viento máxima en m/sg (hora)
DESCASC
Velocidad máxima media en intervalos de 10 minutos(hora)
DESCASC
Precipitaciones diarias en mm
DESCASC
Precipitaciones de 00:00 a 06:00 en mm
DESCASC
Precipitaciones de 06:00 a 12:00 en mm
DESCASC
Precipitaciones de 12:00 a 18:00 en mm
DESCASC
Precipitaciones de 18:00 a 24:00 en mm
DESCASC
20-09-2018 32.2 (15:30) 18 (01:50) 25.1 8.33 (13:00) 5 (14:00) 0 0 0 0 0
19-09-2018 29.7 (15:40) 18.8 (05:00) 24.3 10 (15:50) 4.44 (16:30) 0 0 0 0 0
18-09-2018 26.9 (15:50) 17.7 (07:30) 22.3 7.5 (14:10) 4.72 (14:00) 0 0 0 0 0
17-09-2018 27.8 (14:40) 18.1 (06:20) 22.9 7.78 (15:00) 4.72 (16:20) 0 0 0 0 0
16-09-2018 29.5 (15:50) 18.5 (00:00) 24 8.89 (17:40) 5.83 (16:50) 0 0 0 0 0
15-09-2018 28.6 (14:50) 19.6 (00:00) 24.1 10 (03:10) 5.28 (03:10) 0 0 0 0 0
14-09-2018 28.8 (13:10) 17.4 (00:00) 23.1 11.67 (22:20) 5.83 (23:50) 0 0 0 0 0
13-09-2018 31.4 (16:20) 19.6 (00:00) 25.5 11.11 (14:50) 6.39 (09:20) 0 0 0 0 0
12-09-2018 28 (14:50) 16.9 (00:00) 22.4 8.33 (17:00) 5 (16:20) 0 0 0 0 0
11-09-2018 31.2 (13:30) 16.7 (00:00) 24 8.61 (14:10) 5.28 (13:50) 0 0 0 0 0
10-09-2018 30.4 (14:40) 17.9 (00:00) 24.1 9.72 (14:20) 5.83 (14:50) 0 0 0 0 0
09-09-2018 26.7 (15:40) 18.9 (00:00) 22.8 8.61 (17:10) 4.44 (16:20) 0 0 0 0 0
08-09-2018 27.4 (14:10) 15.8 (00:00) 21.6 8.33 (14:20) 5.56 (15:00) 0 0 0 0 0
07-09-2018 29.1 (15:40) 18.1 (00:00) 23.6 11.39 (12:50) 7.5 (13:20) 0 0 0 0 0
06-09-2018 27.1 (12:30) 18.4 (00:00) 22.8 10.56 (23:59) 3.89 (23:59) 4.6 0 3.6 0.6 0.4
05-09-2018 28.2 (15:10) 17 (00:00) 22.6 8.06 (17:00) 4.72 (14:20) 1.4 0 0 0.6 0.8
04-09-2018 29.6 (16:30) 18.3 (00:00) 23.9 8.61 (16:50) 5.28 (16:50) 0 0 0 0 0
03-09-2018 27.3 (17:00) 15.8 (00:00) 21.5 9.17 (21:20) 4.72 (06:40) 0.2 0 0 0 0.2
02-09-2018 28.4 (14:00) 15 (00:00) 21.7 7.78 (11:50) 4.44 (15:30) 0 0 0 0 0
01-09-2018 30.2 (16:30) 19.1 (00:00) 24.7 15.83 (11:30) 8.33 (11:30) 0 0 0 0 0
31-08-2018 27.6 (14:40) 21.2 (00:00) 24.4 13.61 (09:10) 6.11 (09:10) 0 0 0 0 0
30-08-2018 29.3 (12:40) 18.8 (00:00) 24 14.72 (01:20) 7.22 (01:20) 0 0 0 0 0
29-08-2018 31.2 (13:10) 21.8 (00:00) 26.5 14.72 (23:40) 7.5 (04:10) 0 0 0 0 0
28-08-2018 32 (15:10) 18.7 (00:00) 25.4 7.22 (14:00) 4.17 (14:00) 0 0 0 0 0
27-08-2018 30.7 (15:30) 15.4 (00:00) 23.1 8.06 (16:20) 5 (16:00) 0 0 0 0 0
26-08-2018 29.1 (15:40) 17.4 (00:00) 23.3 17.5 (00:10) 9.44 (02:40) 0 0 0 0 0
25-08-2018 26.2 (12:30) 20 (00:00) 23.1 20.83 (21:20) 11.11 (20:50) 0 0 0 0 0

Gráficas

Temp. máximas Temp. mínimas Temp. medias Precipitaciones Rachas de viento máximas Velocidades máximas media en intervalos de 10 minutos

Datos horarios

Fecha y hora oficial Temperatura (ºC) Velocidad del viento (km/h) Dirección del viento Racha (km/h) Dirección de racha Precipitación (mm) Presión (hPa) Tendencia (hPa) Humedad (%)
2018-09-23 23:00:00 27.3 25 Norte 42 Norte 0 -- -- 48
2018-09-23 22:00:00 28 23 Norte 44 Norte 0 -- -- 48
2018-09-23 21:00:00 28.4 22 Norte 48 Norte 0 -- -- 47
2018-09-23 20:00:00 26.8 0 Calma 10 Sudoeste 0 -- -- 64
2018-09-23 19:00:00 29.3 6 Sudoeste 15 Sudoeste 0 -- -- 56
2018-09-23 18:00:00 30.5 8 Sur 16 Sudoeste 0 -- -- 51
2018-09-23 17:00:00 31.4 11 Sur 23 Sudoeste 0 -- -- 47
2018-09-23 16:00:00 30.9 15 Sur 28 Sur 0 -- -- 48
2018-09-23 15:00:00 32.1 15 Sur 25 Sudeste 0 -- -- 43
2018-09-23 14:00:00 32.3 10 Sur 18 Sur 0 -- -- 41
2018-09-23 13:00:00 31.2 9 Sur 21 Sudoeste 0 -- -- 45
2018-09-23 12:00:00 29.9 8 Sur 18 Sur 0 -- -- 47
2018-09-23 11:00:00 28.5 5 Sudoeste 12 Sudoeste 0 -- -- 49
2018-09-23 10:00:00 25.8 4 Sur 7 Sur 0 -- -- 55
2018-09-23 09:00:00 21.1 0 Calma 5 Este 0 -- -- 74
2018-09-23 08:00:00 17.4 0 Calma 6 Norte 0 -- -- 81
2018-09-23 07:00:00 17.9 0 Calma 11 Norte 0 -- -- 79
2018-09-23 06:00:00 18.6 6 Norte 10 Norte 0 -- -- 78
2018-09-23 05:00:00 19.2 2 Sudeste 15 Norte 0 -- -- 75
2018-09-23 04:00:00 18.9 5 Sudoeste 12 Noroeste 0 -- -- 77
2018-09-23 03:00:00 18.9 3 Nordeste 12 Sur 0 -- -- 78
2018-09-23 02:00:00 19.5 0 Calma 6 Nordeste 0 -- -- 73
2018-09-23 01:00:00 20.6 4 Este 12 Norte 0 -- -- 71
2018-09-23 00:00:00 20.5 4 Noroeste 10 Norte 0 -- -- 74
2018-09-22 23:00:00 21.5 0 Calma 12 Oeste 0 -- -- 73
2018-09-22 22:00:00 22.5 8 Sur 16 Sudoeste 0 -- -- 74
2018-09-22 21:00:00 23.1 6 Sudoeste 20 Norte 0 -- -- 70
2018-09-22 20:00:00 24.2 3 Sudoeste 10 Sur 0 -- -- 67
2018-09-22 19:00:00 25.9 8 Sur 18 Sudoeste 0 -- -- 60
2018-09-22 18:00:00 28.3 9 Sur 19 Sur 0 -- -- 54
2018-09-22 17:00:00 29.9 9 Sur 20 Sur 0 -- -- 49
2018-09-22 16:00:00 29.7 10 Sudoeste 28 Sudoeste 0 -- -- 49
2018-09-22 15:00:00 29.2 14 Sur 24 Sur 0 -- -- 48
2018-09-22 14:00:00 29.3 5 Sudoeste 20 Sudoeste 0 -- -- 48
2018-09-22 13:00:00 28.1 5 Sudoeste 16 Sur 0 -- -- 50
2018-09-22 12:00:00 26.9 7 Sur 19 Sur 0 -- -- 53
2018-09-22 11:00:00 25.5 5 Sur 11 Sur 0 -- -- 55
2018-09-22 10:00:00 23.6 5 Sudoeste 10 Sudoeste 0 -- -- 61
2018-09-22 09:00:00 21.6 3 Nordeste 14 Nordeste 0 -- -- 67
2018-09-22 08:00:00 20.1 9 Nordeste 18 Nordeste 0 -- -- 71
2018-09-22 07:00:00 19.9 8 Norte 12 Norte 0 -- -- 73
2018-09-22 06:00:00 21.4 7 Este 14 Nordeste 0 -- -- 67
2018-09-22 05:00:00 21.8 5 Nordeste 9 Nordeste 0 -- -- 66
2018-09-22 04:00:00 21.3 4 Norte 9 Norte 0 -- -- 68
2018-09-22 03:00:00 23 6 Nordeste 15 Nordeste 0 -- -- 63
2018-09-22 02:00:00 22.3 6 Nordeste 10 Nordeste 0 -- -- 64
2018-09-22 01:00:00 22.4 5 Norte 10 Sudoeste 0 -- -- 60
2018-09-22 00:00:00 24.2 5 Sudeste 9 Sudeste 0 -- -- 54
2018-09-21 23:00:00 25.2 6 Nordeste 16 Este 0 -- -- 51
2018-09-21 22:00:00 25.4 5 Sur 17 Norte 0 -- -- 51
2018-09-21 21:00:00 26 9 Norte 36 Norte 0 -- -- 50
2018-09-21 20:00:00 26.5 13 Norte 29 Norte 0 -- -- 50
2018-09-21 19:00:00 28.5 5 Sur 18 Sur 0 -- -- 49
2018-09-21 18:00:00 30.5 10 Sur 19 Sudeste 0 -- -- 46
2018-09-21 17:00:00 31.2 10 Sur 22 Sur 0 -- -- 45
2018-09-21 16:00:00 31.3 12 Sur 24 Sur 0 -- -- 44
2018-09-21 15:00:00 31.2 12 Sur 21 Sur 0 -- -- 44
2018-09-21 14:00:00 30.5 9 Sur 21 Sur 0 -- -- 46
2018-09-21 13:00:00 29.8 9 Sudoeste 19 Sudoeste 0 -- -- 46
2018-09-21 12:00:00 29.1 10 Sur 15 Sudoeste 0 -- -- 48
2018-09-21 11:00:00 27.8 9 Sur 20 Nordeste 0 -- -- 51
2018-09-21 10:00:00 26 11 Nordeste 20 Nordeste 0 -- -- 56
2018-09-21 09:00:00 22.4 5 Nordeste 10 Nordeste 0 -- -- 66
2018-09-21 08:00:00 18.7 6 Nordeste 12 Nordeste 0 -- -- 68
2018-09-21 07:00:00 18.2 5 Nordeste 10 Norte 0 -- -- 71
2018-09-21 06:00:00 18.4 4 Norte 9 Norte 0 -- -- 69
2018-09-21 05:00:00 18.6 0 Calma 10 Nordeste 0 -- -- 69
2018-09-21 04:00:00 19.7 10 Nordeste 15 Nordeste 0 -- -- 65
2018-09-21 03:00:00 20 4 Nordeste 11 Nordeste 0 -- -- 68
2018-09-21 02:00:00 19.7 5 Nordeste 10 Norte 0 -- -- 72
2018-09-21 01:00:00 20.2 4 Norte 15 Norte 0 -- -- 70
2018-09-21 00:00:00 20.8 4 Norte 8 Norte 0 -- -- 68
2018-09-20 23:00:00 20.6 2 Norte 10 Norte 0 -- -- 66
2018-09-20 22:00:00 21.5 0 Calma 8 Nordeste 0 -- -- 64
2018-09-20 21:00:00 22.7 0 Calma 5 Norte 0 -- -- 61
2018-09-20 20:00:00 25.4 2 Norte 9 Sur 0 -- -- 54
2018-09-20 19:00:00 27.5 6 Sudoeste 18 Sudoeste 0 -- -- 49
2018-09-20 18:00:00 29.5 13 Sur 23 Sur 0 -- -- 44
2018-09-20 17:00:00 31.2 14 Sur 25 Sur 0 -- -- 40
2018-09-20 16:00:00 31.9 14 Sur 23 Sur 0 -- -- 38
2018-09-20 15:00:00 31.9 13 Sudeste 28 Sudeste 0 -- -- 38
2018-09-20 14:00:00 31.6 18 Sur 28 Sur 0 -- -- 39
2018-09-20 13:00:00 31.6 16 Sur 30 Sur 0 -- -- 39
2018-09-20 12:00:00 31.1 10 Sur 17 Sur 0 -- -- 40
2018-09-20 11:00:00 28.8 9 Sur 13 Sur 0 -- -- 48
2018-09-20 10:00:00 25.3 3 Sur 6 Sudoeste 0 -- -- 57
2018-09-20 09:00:00 21.3 2 Sudeste 12 Nordeste 0 -- -- 68
2018-09-20 08:00:00 18.2 4 Nordeste 12 Norte 0 -- -- 75
2018-09-20 07:00:00 18 5 Norte 10 Norte 0 -- -- 78
2018-09-20 06:00:00 18.3 6 Norte 12 Nordeste 0 -- -- 79
2018-09-20 05:00:00 18.5 5 Nordeste 11 Norte 0 -- -- 80
2018-09-20 04:00:00 18.3 4 Nordeste 10 Nordeste 0 -- -- 84
2018-09-20 03:00:00 18.3 4 Norte 9 Nordeste 0 -- -- 85
2018-09-20 02:00:00 18.1 6 Nordeste 10 Nordeste 0 -- -- 85
2018-09-20 01:00:00 18.4 4 Nordeste 10 Nordeste 0 -- -- 83
2018-09-20 00:00:00 19 4 Norte 9 Norte 0 -- -- 81
2018-09-19 23:00:00 19.6 4 Nordeste 9 Nordeste 0 -- -- 79
2018-09-19 22:00:00 20.3 5 Nordeste 9 Nordeste 0 -- -- 78
2018-09-19 21:00:00 22.1 0 Calma 6 Sur 0 -- -- 71
2018-09-19 20:00:00 24.3 4 Sur 12 Sudoeste 0 -- -- 66
2018-09-19 19:00:00 26.7 6 Sudoeste 19 Sudoeste 0 -- -- 58
2018-09-19 18:00:00 28.3 12 Sudoeste 22 Sur 0 -- -- 53
2018-09-19 17:00:00 28.6 15 Sur 25 Sur 0 -- -- 54
2018-09-19 16:00:00 29.3 6 Sur 36 Noroeste 0 -- -- 54
2018-09-19 15:00:00 29.2 5 Sur 22 Sur 0 -- -- 54
2018-09-19 14:00:00 28.7 10 Sur 23 Sur 0 -- -- 56
2018-09-19 13:00:00 28.8 5 Sur 16 Sudoeste 0 -- -- 52
2018-09-19 12:00:00 26.8 4 Sur 13 Oeste 0 -- -- 62
2018-09-19 11:00:00 25.8 5 Oeste 11 Noroeste 0 -- -- 66
2018-09-19 10:00:00 24.4 3 Oeste 10 Nordeste 0 -- -- 71
2018-09-19 09:00:00 22.1 6 Nordeste 15 Nordeste 0 -- -- 82
2018-09-19 08:00:00 18.9 4 Norte 9 Nordeste 0 -- -- 90
2018-09-19 07:00:00 19.1 4 Norte 18 Nordeste 0 -- -- 88
2018-09-19 06:00:00 19.6 9 Nordeste 14 Nordeste 0 -- -- 89
2018-09-19 05:00:00 18.8 2 Nordeste 9 Norte 0 -- -- 89
2018-09-19 04:00:00 19 3 Norte 14 Nordeste 0 -- -- 88
2018-09-19 03:00:00 19.3 7 Nordeste 16 Nordeste 0 -- -- 88
2018-09-19 02:00:00 19.3 9 Nordeste 16 Nordeste 0 -- -- 87
2018-09-19 01:00:00 19.6 6 Nordeste 13 Nordeste 0 -- -- 84
2018-09-19 00:00:00 20 7 Nordeste 14 Nordeste 0 -- -- 83
2018-09-18 23:00:00 20.3 8 Nordeste 17 Nordeste 0 -- -- 83
2018-09-18 22:00:00 20.9 12 Nordeste 17 Nordeste 0 -- -- 84
2018-09-18 21:00:00 21.3 6 Nordeste 13 Nordeste 0 -- -- 79
2018-09-18 20:00:00 23.3 0 Calma 4 Este 0 -- -- 73
2018-09-18 19:00:00 24.5 3 Este 14 Sudeste 0 -- -- 70
2018-09-18 18:00:00 25 8 Sudeste 19 Sudeste 0 -- -- 68
2018-09-18 17:00:00 25.7 10 Sur 22 Sur 0 -- -- 65
2018-09-18 16:00:00 26.9 10 Sur 22 Sur 0 -- -- 57
2018-09-18 15:00:00 26.6 7 Sudeste 27 Sudeste 0 -- -- 60
2018-09-18 14:00:00 25.4 17 Sudeste 26 Sudeste 0 -- -- 66
2018-09-18 13:00:00 26 14 Sudeste 20 Este 0 -- -- 64
2018-09-18 12:00:00 25 10 Sudeste 19 Este 0 -- -- 66
2018-09-18 11:00:00 25.3 5 Este 9 Noroeste 0 -- -- 64
2018-09-18 10:00:00 23 3 Oeste 10 Nordeste 0 -- -- 78
2018-09-18 09:00:00 20.6 4 Nordeste 12 Nordeste 0 -- -- 82
2018-09-18 08:00:00 17.8 6 Nordeste 12 Nordeste 0 -- -- 90
2018-09-18 07:00:00 18 6 Nordeste 12 Nordeste 0 -- -- 91
2018-09-18 06:00:00 18.2 5 Nordeste 9 Nordeste 0 -- -- 93
2018-09-18 05:00:00 18.4 5 Norte 8 Norte 0 -- -- 92
2018-09-18 04:00:00 19.3 3 Norte 5 Nordeste 0 -- -- 92
2018-09-18 03:00:00 20.7 0 Calma 8 Sudoeste 0 -- -- 90
2018-09-18 02:00:00 20.5 0 Calma 4 Nordeste 0 -- -- 89
2018-09-18 01:00:00 20.9 2 Este 4 Este 0 -- -- 87
2018-09-18 00:00:00 21.1 0 Calma 6 Este 0 -- -- 87
2018-09-17 23:00:00 21.1 3 Este 5 Este 0 -- -- 89
2018-09-17 22:00:00 20.3 0 Calma 5 Norte 0 -- -- 88
2018-09-17 21:00:00 21.3 0 Calma 8 Sur 0 -- -- 85
2018-09-17 20:00:00 22.4 8 Sur 19 Sur 0 -- -- 82
2018-09-17 19:00:00 23.7 13 Sur 22 Sur 0 -- -- 65
2018-09-17 18:00:00 24.6 11 Sur 20 Sur 0 -- -- 56
2018-09-17 17:00:00 25.3 15 Sur 26 Sur 0 -- -- 60
2018-09-17 16:00:00 27.6 14 Sur 23 Sur 0 -- -- 56
2018-09-17 15:00:00 26.7 16 Sur 28 Sur 0 -- -- 62
2018-09-17 14:00:00 26.3 11 Sur 26 Sur 0 -- -- 64
2018-09-17 13:00:00 26.4 12 Sur 21 Sudeste 0 -- -- 59
2018-09-17 12:00:00 23.4 6 Sur 10 Sur 0 -- -- 81
2018-09-17 11:00:00 22.4 2 Sur 8 Sur 0 -- -- 86
2018-09-17 10:00:00 22.1 3 Sur 8 Nordeste 0 -- -- 85
2018-09-17 09:00:00 21.2 5 Nordeste 8 Nordeste 0 -- -- 90
2018-09-17 08:00:00 20 5 Nordeste 9 Nordeste 0 -- -- 89
2018-09-17 07:00:00 18.9 4 Nordeste 5 Nordeste 0 -- -- 92
2018-09-17 06:00:00 18.5 0 Calma 13 Nordeste 0 -- -- 90
2018-09-17 05:00:00 19.2 8 Nordeste 15 Nordeste 0 -- -- 88
2018-09-17 04:00:00 19.5 8 Nordeste 12 Nordeste 0 -- -- 92
2018-09-17 03:00:00 19.5 5 Nordeste 11 Nordeste 0 -- -- 89
2018-09-17 02:00:00 19.1 4 Nordeste 9 Nordeste 0 -- -- 91
2018-09-17 01:00:00 19.4 6 Nordeste 10 Nordeste 0 -- -- 88
2018-09-17 00:00:00 19.9 5 Nordeste 10 Nordeste 0 -- -- 88
2018-09-16 23:00:00 20.6 4 Nordeste 11 Nordeste 0 -- -- 85
2018-09-16 22:00:00 21.4 8 Nordeste 11 Nordeste 0 -- -- 84
2018-09-16 21:00:00 22.3 4 Nordeste 8 Nordeste 0 -- -- 83
2018-09-16 20:00:00 23.2 3 Nordeste 13 Sur 0 -- -- 80
2018-09-16 19:00:00 23.9 9 Sudeste 25 Sur 0 -- -- 78
2018-09-16 18:00:00 25.8 18 Sur 32 Sur 0 -- -- 69
2018-09-16 17:00:00 27.7 20 Sur 30 Sur 0 -- -- 60
2018-09-16 16:00:00 29.1 18 Sur 28 Sur 0 -- -- 53
2018-09-16 15:00:00 29.2 15 Sur 27 Sur 0 -- -- 53
2018-09-16 14:00:00 29.3 12 Sudoeste 24 Sudoeste 0 -- -- 51
2018-09-16 13:00:00 27.6 9 Sur 17 Sur 0 -- -- 54
2018-09-16 12:00:00 26.4 8 Sur 16 Sur 0 -- -- 57
2018-09-16 11:00:00 24.9 10 Sur 15 Sur 0 -- -- 61
2018-09-16 10:00:00 22.5 3 Este 8 Nordeste 0 -- -- 62
2018-09-16 09:00:00 20.3 3 Nordeste 10 Nordeste 0 -- -- 68
2018-09-16 08:00:00 19.6 3 Norte 13 Nordeste 0 -- -- 68
2018-09-16 07:00:00 19 4 Nordeste 10 Nordeste 0 -- -- 70
2018-09-16 06:00:00 18.5 4 Nordeste 6 Nordeste 0 -- -- 74
2018-09-16 05:00:00 19.4 0 Calma 9 Sur 0 -- -- 69
2018-09-16 04:00:00 20.3 3 Oeste 17 Nordeste 0 -- -- 64
2018-09-16 03:00:00 19.7 7 Norte 14 Nordeste 0 -- -- 68
2018-09-16 02:00:00 19.5 9 Nordeste 12 Nordeste 0 -- -- 69
2018-09-16 01:00:00 19.6 4 Nordeste 11 Nordeste 0 -- -- 69
2018-09-16 00:00:00 19.8 6 Nordeste 10 Nordeste 0 -- -- 67
2018-09-15 23:00:00 19.7 3 Norte 9 Norte 0 -- -- 67
2018-09-15 22:00:00 20.7 0 Calma 10 Norte 0 -- -- 64
2018-09-15 21:00:00 21.6 0 Calma 7 Este 0 -- -- 64
2018-09-15 20:00:00 22.1 4 Nordeste 9 Sudeste 0 -- -- 65
2018-09-15 19:00:00 22.9 6 Sur 11 Sudeste 0 -- -- 60
2018-09-15 18:00:00 23.8 8 Sudoeste 17 Sur 0 -- -- 60
2018-09-15 17:00:00 25.8 12 Sur 27 Sur 0 -- -- 52
2018-09-15 16:00:00 28 11 Sudeste 22 Sur 0 -- -- 43
2018-09-15 15:00:00 28.6 10 Sur 24 Sur 0 -- -- 43
2018-09-15 14:00:00 28.1 11 Oeste 20 Oeste 0 -- -- 46
2018-09-15 13:00:00 27.4 6 Oeste 18 Oeste 0 -- -- 44
2018-09-15 12:00:00 26.8 5 Sur 15 Sudoeste 0 -- -- 46
2018-09-15 11:00:00 24.9 7 Sur 11 Sur 0 -- -- 50
2018-09-15 10:00:00 24.1 3 Sudoeste 8 Sur 0 -- -- 51
2018-09-15 09:00:00 22.3 3 Sur 9 Sudeste 0 -- -- 56
2018-09-15 08:00:00 20.9 3 Este 8 Norte 0 -- -- 59
2018-09-15 07:00:00 20.7 4 Oeste 8 Sur 0 -- -- 59
2018-09-15 06:00:00 20.4 4 Nordeste 10 Sudeste 0 -- -- 58
2018-09-15 05:00:00 21.2 5 Sudeste 18 Norte 0 -- -- 55
2018-09-15 04:00:00 22.2 7 Nordeste 36 Noroeste 0 -- -- 51
2018-09-15 03:00:00 22.7 13 Noroeste 24 Noroeste 0 -- -- 51
2018-09-15 02:00:00 21.5 7 Norte 15 Noroeste 0 -- -- 54
2018-09-15 01:00:00 23.1 6 Norte 18 Norte 0 -- -- 49
2018-09-15 00:00:00 24.2 12 Norte 38 Noroeste 0 -- -- 45
2018-09-14 23:00:00 24 18 Noroeste 42 Norte 0 -- -- 48
2018-09-14 22:00:00 24.2 13 Norte 28 Norte 0 -- -- 49
2018-09-14 21:00:00 24.1 8 Nordeste 23 Norte 0 -- -- 61
2018-09-14 20:00:00 24.5 8 Norte 21 Norte 0 -- -- 53
2018-09-14 19:00:00 25.7 10 Norte 24 Noroeste 0 -- -- 51
2018-09-14 18:00:00 26.1 8 Sur 18 Sudoeste 0 -- -- 52
2018-09-14 17:00:00 26.4 9 Sudoeste 19 Sur 0 -- -- 53
2018-09-14 16:00:00 26 15 Sur 24 Sur 0 -- -- 56
2018-09-14 15:00:00 27.9 12 Sur 23 Sur 0 -- -- 50
2018-09-14 14:00:00 27.6 12 Oeste 21 Oeste 0 -- -- 49
2018-09-14 13:00:00 28.6 12 Sudoeste 23 Oeste 0 -- -- 47
2018-09-14 12:00:00 28 11 Oeste 18 Oeste 0 -- -- 46
2018-09-14 11:00:00 26.4 7 Sudoeste 12 Sudoeste 0 -- -- 47
2018-09-14 10:00:00 24.7 5 Sudeste 15 Sur 0 -- -- 53
2018-09-14 09:00:00 21.5 3 Este 12 Este 0 -- -- 64
2018-09-14 08:00:00 17.9 3 Nordeste 8 Nordeste 0 -- -- 76
2018-09-14 07:00:00 17.7 3 Norte 12 Norte 0 -- -- 76
2018-09-14 06:00:00 18.7 0 Calma 11 Sudeste 0 -- -- 73
2018-09-14 05:00:00 19.9 5 Norte 10 Sur 0 -- -- 69
2018-09-14 04:00:00 20.3 5 Este 15 Norte 0 -- -- 69
2018-09-14 03:00:00 19.7 5 Sudeste 22 Sur 0 -- -- 71
2018-09-14 02:00:00 19.5 2 Sudeste 8 Norte 0 -- -- 71
2018-09-14 01:00:00 19.2 4 Norte 8 Noroeste 0 -- -- 71
2018-09-14 00:00:00 19.6 3 Norte 7 Este 0 -- -- 69
2018-09-13 23:00:00 20.9 5 Norte 14 Este 0 -- -- 66
2018-09-13 22:00:00 22.8 3 Sur 19 Nordeste 0 -- -- 59
2018-09-13 21:00:00 24.6 16 Nordeste 36 Nordeste 0 -- -- 53
2018-09-13 20:00:00 25.3 12 Norte 23 Norte 0 -- -- 52
2018-09-13 19:00:00 28.5 10 Noroeste 26 Noroeste 0 -- -- 46
2018-09-13 18:00:00 30.4 11 Norte 26 Norte 0 -- -- 41
2018-09-13 17:00:00 30.8 14 Norte 28 Nordeste 0 -- -- 41
2018-09-13 16:00:00 31 14 Norte 33 Norte 0 -- -- 41
2018-09-13 15:00:00 30.9 18 Norte 40 Noroeste 0 -- -- 41
2018-09-13 14:00:00 30 14 Noroeste 30 Noroeste 0 -- -- 43
2018-09-13 13:00:00 29.3 11 Norte 31 Noroeste 0 -- -- 45
2018-09-13 12:00:00 28.3 11 Norte 36 Noroeste 0 -- -- 49
2018-09-13 11:00:00 27.2 15 Norte 40 Norte 0 -- -- 51
2018-09-13 10:00:00 24.3 18 Norte 34 Noroeste 0 -- -- 59
2018-09-13 09:00:00 23.8 18 Norte 31 Norte 0 -- -- 61
2018-09-13 08:00:00 23.4 18 Norte 37 Norte 0 -- -- 62
2018-09-13 07:00:00 23.3 13 Norte 26 Norte 0 -- -- 62
2018-09-13 06:00:00 21.3 4 Oeste 22 Norte 0 -- -- 80
2018-09-13 05:00:00 22.2 5 Norte 15 Noroeste 0 -- -- 71
2018-09-13 04:00:00 22.6 4 Este 23 Nordeste 0 -- -- 73
2018-09-13 03:00:00 21.2 9 Nordeste 22 Este 0 -- -- 80
2018-09-13 02:00:00 20.9 3 Noroeste 17 Sur 0 -- -- 91
2018-09-13 01:00:00 21.4 13 Sur 22 Sur 0 -- -- 91
2018-09-13 00:00:00 23.4 9 Sudeste 18 Sudeste 0 -- -- 76
2018-09-12 23:00:00 23.5 6 Este 19 Nordeste 0 -- -- 70
2018-09-12 22:00:00 23.5 8 Nordeste 17 Nordeste 0 -- -- 76
2018-09-12 21:00:00 23.8 5 Sudoeste 12 Oeste 0 -- -- 88
2018-09-12 20:00:00 24.5 4 Sudoeste 13 Sur 0 -- -- 84
2018-09-12 19:00:00 25.3 8 Sur 21 Sudoeste 0 -- -- 78
2018-09-12 18:00:00 26.6 9 Sudoeste 24 Sur 0 -- -- 74
2018-09-12 17:00:00 25.9 18 Sur 30 Sur 0 -- -- 75
2018-09-12 16:00:00 27.3 15 Sur 26 Sudeste 0 -- -- 65
2018-09-12 15:00:00 27.6 11 Sur 21 Sur 0 -- -- 63
2018-09-12 14:00:00 27.2 14 Sur 24 Sudeste 0 -- -- 63
2018-09-12 13:00:00 27.5 12 Sur 22 Sur 0 -- -- 60
2018-09-12 12:00:00 27.1 12 Sur 18 Sudeste 0 -- -- 60
2018-09-12 11:00:00 25.2 9 Sudoeste 17 Sur 0 -- -- 62
2018-09-12 10:00:00 24.2 5 Sudoeste 9 Sudoeste 0 -- -- 62
2018-09-12 09:00:00 21.1 0 Calma 9 Nordeste 0 -- -- 70
2018-09-12 08:00:00 17.4 5 Nordeste 10 Nordeste 0 -- -- 80
2018-09-12 07:00:00 17.3 0 Calma 8 Nordeste 0 -- -- 81
2018-09-12 06:00:00 18.2 4 Nordeste 11 Nordeste 0 -- -- 79
2018-09-12 05:00:00 17.9 4 Nordeste 11 Nordeste 0 -- -- 79
2018-09-12 04:00:00 18 4 Norte 13 Nordeste 0 -- -- 78
2018-09-12 03:00:00 18 4 Norte 10 Nordeste 0 -- -- 76
2018-09-12 02:00:00 18.8 4 Norte 13 Nordeste 0 -- -- 71
2018-09-12 01:00:00 18.8 9 Nordeste 13 Nordeste 0 -- -- 71
2018-09-12 00:00:00 19.8 0 Calma 11 Nordeste 0 -- -- 68
2018-09-11 23:00:00 20.7 6 Norte 14 Nordeste 0 -- -- 62
2018-09-11 22:00:00 20.8 5 Nordeste 11 Nordeste 0 -- -- 62
2018-09-11 21:00:00 21.5 3 Nordeste 8 Nordeste 0 -- -- 66
2018-09-11 20:00:00 23.8 5 Sudoeste 10 Sur 0 -- -- 61
2018-09-11 19:00:00 26.1 5 Sur 18 Sur 0 -- -- 59
2018-09-11 18:00:00 28.8 12 Sur 21 Sur 0 -- -- 48
2018-09-11 17:00:00 29.6 14 Sur 23 Sur 0 -- -- 45
2018-09-11 16:00:00 30.5 14 Sur 24 Sur 0 -- -- 42
2018-09-11 15:00:00 30.5 8 Sur 31 Sur 0 -- -- 41
2018-09-11 14:00:00 30.4 16 Sur 28 Sur 0 -- -- 37
2018-09-11 13:00:00 30.1 15 Este 25 Este 0 -- -- 37
2018-09-11 12:00:00 29.4 9 Sudoeste 17 Sudoeste 0 -- -- 40
2018-09-11 11:00:00 27.2 11 Sudoeste 15 Sudoeste 0 -- -- 49
2018-09-11 10:00:00 24.8 5 Sur 8 Sur 0 -- -- 57
2018-09-11 09:00:00 20.8 0 Calma 5 Nordeste 0 -- -- 72
2018-09-11 08:00:00 17 3 Nordeste 7 Norte 0 -- -- 84
2018-09-11 07:00:00 17.3 4 Nordeste 8 Norte 0 -- -- 83
2018-09-11 06:00:00 17.9 4 Nordeste 10 Sudoeste 0 -- -- 79
2018-09-11 05:00:00 19.4 4 Oeste 11 Sur 0 -- -- 75
2018-09-11 04:00:00 20.2 4 Sur 14 Norte 0 -- -- 72
2018-09-11 03:00:00 19.7 5 Sudoeste 15 Sur 0 -- -- 75
2018-09-11 02:00:00 19 3 Norte 10 Noroeste 0 -- -- 78
2018-09-11 01:00:00 19.2 6 Nordeste 14 Nordeste 0 -- -- 79
2018-09-11 00:00:00 19.8 4 Norte 12 Norte 0 -- -- 77
2018-09-10 23:00:00 19.9 4 Nordeste 9 Norte 0 -- -- 75
2018-09-10 22:00:00 20.9 4 Nordeste 8 Sudoeste 0 -- -- 71
2018-09-10 21:00:00 23.2 5 Sudoeste 10 Sur 0 -- -- 62
2018-09-10 20:00:00 26.5 4 Norte 13 Noroeste 0 -- -- 47
2018-09-10 19:00:00 28 7 Norte 21 Norte 0 -- -- 42
2018-09-10 18:00:00 28.9 10 Norte 26 Nordeste 0 -- -- 42
2018-09-10 17:00:00 30 8 Noroeste 23 Nordeste 0 -- -- 39
2018-09-10 16:00:00 29 14 Nordeste 29 Este 0 -- -- 40
2018-09-10 15:00:00 29.3 20 Nordeste 35 Este 0 -- -- 39
2018-09-10 14:00:00 30 19 Nordeste 32 Nordeste 0 -- -- 37
2018-09-10 13:00:00 29.2 13 Nordeste 30 Nordeste 0 -- -- 38
2018-09-10 12:00:00 26.6 6 Sur 14 Sur 0 -- -- 47
2018-09-10 11:00:00 24.5 10 Sur 14 Sur 0 -- -- 62
2018-09-10 10:00:00 21.4 4 Sudoeste 9 Sur 0 -- -- 77
2018-09-10 09:00:00 19.8 3 Sudoeste 14 Sudoeste 0 -- -- 82
2018-09-10 08:00:00 19.4 6 Noroeste 13 Noroeste 0 -- -- 84
2018-09-10 07:00:00 18.5 5 Nordeste 10 Nordeste 0 -- -- 86
2018-09-10 06:00:00 18.1 0 Calma 10 Norte 0 -- -- 87
2018-09-10 05:00:00 18 3 Sudeste 9 Nordeste 0 -- -- 86
2018-09-10 04:00:00 18.5 3 Nordeste 13 Nordeste 0 -- -- 83
2018-09-10 03:00:00 18.8 7 Nordeste 16 Nordeste 0 -- -- 82
2018-09-10 02:00:00 18.6 7 Nordeste 12 Nordeste 0 -- -- 83
2018-09-10 01:00:00 19.4 0 Calma 8 Norte 0 -- -- 81
2018-09-10 00:00:00 20.6 0 Calma 7 Nordeste 0 -- -- 78
2018-09-09 23:00:00 21.1 5 Nordeste 15 Nordeste 0 -- -- 75
2018-09-09 22:00:00 21.6 8 Nordeste 14 Nordeste 0 -- -- 71
2018-09-09 21:00:00 23 3 Nordeste 9 Nordeste 0 -- -- 64
2018-09-09 20:00:00 23.5 2 Este 12 Sur 0 -- -- 66
2018-09-09 19:00:00 23.8 10 Sur 19 Sur 0 -- -- 63
2018-09-09 18:00:00 24.3 12 Sur 31 Sudoeste 0 -- -- 65
2018-09-09 17:00:00 25.7 14 Sudeste 25 Sudoeste 0 -- -- 66
2018-09-09 16:00:00 25.8 16 Sur 28 Sur 0 -- -- 68
2018-09-09 15:00:00 26.2 14 Sur 22 Sur 0 -- -- 69
2018-09-09 14:00:00 25.2 10 Sur 17 Sur 0 -- -- 73
2018-09-09 13:00:00 25.2 7 Sur 20 Nordeste 0 -- -- 71
2018-09-09 12:00:00 24.7 6 Sudoeste 13 Sudoeste 0 -- -- 72
2018-09-09 11:00:00 24.2 5 Sur 12 Sudoeste 0 -- -- 73
2018-09-09 10:00:00 22.7 4 Oeste 7 Oeste 0 -- -- 82
2018-09-09 09:00:00 20.8 0 Calma 3 Sur 0 -- -- 90
2018-09-09 08:00:00 19.4 0 Calma 2 Norte 0 -- -- 93
2018-09-09 07:00:00 19.1 0 Calma 7 Nordeste 0 -- -- 91
2018-09-09 06:00:00 19.7 5 Nordeste 10 Nordeste 0 -- -- 90
2018-09-09 05:00:00 19.7 3 Nordeste 13 Nordeste 0 -- -- 90
2018-09-09 04:00:00 19.4 8 Nordeste 14 Nordeste 0 -- -- 89
2018-09-09 03:00:00 19 7 Nordeste 11 Nordeste 0 -- -- 89
2018-09-09 02:00:00 18.9 8 Nordeste 14 Nordeste 0 -- -- 87
2018-09-09 01:00:00 19 8 Nordeste 11 Nordeste 0 -- -- 86
2018-09-09 00:00:00 19.6 3 Nordeste 15 Nordeste 0 -- -- 83
2018-09-08 23:00:00 20.1 6 Nordeste 14 Nordeste 0 -- -- 81
2018-09-08 22:00:00 21 4 Nordeste 10 Nordeste 0 -- -- 79
2018-09-08 21:00:00 21.9 3 Este 9 Sur 0 -- -- 77
2018-09-08 20:00:00 23.2 6 Sur 13 Sur 0 -- -- 71
2018-09-08 19:00:00 24.4 10 Sur 14 Sur 0 -- -- 65
2018-09-08 18:00:00 25.3 5 Sur 17 Sur 0 -- -- 60
2018-09-08 17:00:00 24.9 10 Sur 21 Sur 0 -- -- 60
2018-09-08 16:00:00 25.8 14 Sur 28 Sur 0 -- -- 56
2018-09-08 15:00:00 26.2 20 Sur 30 Sur 0 -- -- 55
2018-09-08 14:00:00 27.2 11 Sur 22 Sur 0 -- -- 56
2018-09-08 13:00:00 26.6 11 Sur 22 Sur 0 -- -- 55
2018-09-08 12:00:00 25.8 5 Sur 17 Sur 0 -- -- 55
2018-09-08 11:00:00 24.1 8 Sudoeste 14 Sudoeste 0 -- -- 60
2018-09-08 10:00:00 21.7 4 Sur 13 Sur 0 -- -- 66
2018-09-08 09:00:00 20.1 0 Calma 13 Nordeste 0 -- -- 73
2018-09-08 08:00:00 17.3 3 Norte 7 Noroeste 0 -- -- 77
2018-09-08 07:00:00 16.5 5 Nordeste 14 Nordeste 0 -- -- 79
2018-09-08 06:00:00 16 3 Norte 10 Nordeste 0 -- -- 81
2018-09-08 05:00:00 16 3 Nordeste 7 Nordeste 0 -- -- 80
2018-09-08 04:00:00 16.3 3 Nordeste 7 Norte 0 -- -- 78
2018-09-08 03:00:00 17 4 Nordeste 9 Nordeste 0 -- -- 75
2018-09-08 02:00:00 17 5 Nordeste 8 Nordeste 0 -- -- 78
2018-09-08 01:00:00 17.8 4 Nordeste 9 Este 0 -- -- 75
2018-09-08 00:00:00 18.1 0 Calma 9 Norte 0 -- -- 79
2018-09-07 23:00:00 19.2 0 Calma 12 Nordeste 0 -- -- 76
2018-09-07 22:00:00 19.8 3 Nordeste 9 Norte 0 -- -- 75
2018-09-07 21:00:00 21.6 3 Nordeste 8 Norte 0 -- -- 69
2018-09-07 20:00:00 24 3 Este 9 Sur 0 -- -- 58
2018-09-07 19:00:00 24.7 6 Sur 19 Sur 0 -- -- 56
2018-09-07 18:00:00 24.9 13 Sur 23 Sur 0 -- -- 55
2018-09-07 17:00:00 27.9 9 Norte 23 Norte 0 -- -- 43
2018-09-07 16:00:00 28.2 17 Nordeste 30 Noroeste 0 -- -- 43
2018-09-07 15:00:00 28.3 17 Norte 31 Nordeste 0 -- -- 42
2018-09-07 14:00:00 27.7 17 Norte 40 Noroeste 0 -- -- 45
2018-09-07 13:00:00 25.4 25 Noroeste 41 Noroeste 0 -- -- 49
2018-09-07 12:00:00 25.9 23 Noroeste 39 Norte 0 -- -- 50
2018-09-07 11:00:00 25.5 18 Noroeste 39 Noroeste 0 -- -- 48
2018-09-07 10:00:00 24.3 16 Noroeste 28 Noroeste 0 -- -- 50
2018-09-07 09:00:00 22.7 15 Noroeste 23 Noroeste 0 -- -- 56
2018-09-07 08:00:00 19.1 5 Sur 10 Sudoeste 0 -- -- 69
2018-09-07 07:00:00 18.9 2 Noroeste 22 Oeste 0 -- -- 70
2018-09-07 06:00:00 19.3 7 Nordeste 16 Nordeste 0 -- -- 69
2018-09-07 05:00:00 21 7 Noroeste 34 Noroeste 0 -- -- 61
2018-09-07 04:00:00 20.9 14 Norte 25 Norte 0 -- -- 61
2018-09-07 03:00:00 21.9 14 Noroeste 31 Noroeste 0 -- -- 54
2018-09-07 02:00:00 20.8 8 Noroeste 20 Oeste 0 -- -- 61
2018-09-07 01:00:00 20.7 9 Oeste 21 Oeste 0 -- -- 64
2018-09-07 00:00:00 21.6 14 Nordeste 38 Norte 0.2 -- -- 60
2018-09-06 23:00:00 20.9 8 Sudeste 20 Este 0 -- -- 67
2018-09-06 22:00:00 18.4 5 Sudoeste 8 Sur 0 -- -- 87
2018-09-06 21:00:00 19.4 3 Norte 10 Este 0 -- -- 89
2018-09-06 20:00:00 20.5 3 Norte 13 Sur 0.2 -- -- 84
2018-09-06 19:00:00 21.5 8 Sur 17 Sur 0 -- -- 80
2018-09-06 18:00:00 23 3 Oeste 12 Noroeste 0 -- -- 74
2018-09-06 17:00:00 22.9 5 Oeste 17 Este 0.6 -- -- 76
2018-09-06 16:00:00 24.1 10 Nordeste 28 Este 0 -- -- 57
2018-09-06 15:00:00 26.2 9 Este 17 Norte 0 -- -- 52
2018-09-06 14:00:00 26.1 7 Norte 14 Sudeste 0 -- -- 49
2018-09-06 13:00:00 26.5 10 Este 19 Nordeste 0 -- -- 49
2018-09-06 12:00:00 26.2 4 Sur 12 Sur 0 -- -- 55
2018-09-06 11:00:00 23.5 6 Sur 9 Sudoeste 0 -- -- 68
2018-09-06 10:00:00 21.3 3 Sudoeste 9 Nordeste 0 -- -- 85
2018-09-06 09:00:00 19.8 7 Nordeste 11 Nordeste 0 -- -- 92
2018-09-06 08:00:00 18.4 6 Nordeste 13 Nordeste 0 -- -- 93
2018-09-06 07:00:00 18.6 3 Norte 11 Nordeste 3.6 -- -- 90
2018-09-06 06:00:00 19.6 9 Nordeste 15 Nordeste 0 -- -- 82
2018-09-06 05:00:00 19.2 5 Norte 9 Nordeste 0 -- -- 90
2018-09-06 04:00:00 19.7 5 Norte 9 Norte 0 -- -- 90
2018-09-06 03:00:00 19.7 3 Sudeste 10 Nordeste 0 -- -- 90
2018-09-06 02:00:00 19.8 4 Nordeste 12 Norte 0 -- -- 91
2018-09-06 01:00:00 19.6 8 Nordeste 13 Nordeste 0 -- -- 92
2018-09-06 00:00:00 19.3 8 Nordeste 13 Nordeste 0 -- -- 93
2018-09-05 23:00:00 19.6 5 Nordeste 9 Este 0 -- -- 92
2018-09-05 22:00:00 20.7 5 Norte 12 Este 0 -- -- 92
2018-09-05 21:00:00 21.5 4 Nordeste 9 Norte 0 -- -- 92
2018-09-05 20:00:00 21.1 6 Nordeste 22 Noroeste 0 -- -- 87
2018-09-05 19:00:00 22.5 5 Este 17 Sudeste 0.8 -- -- 90
2018-09-05 18:00:00 23.8 10 Sudeste 19 Sudeste 0.6 -- -- 83
2018-09-05 17:00:00 26.8 15 Sur 29 Sudoeste 0 -- -- 66
2018-09-05 16:00:00 28.2 13 Sudeste 25 Sur 0 -- -- 58
2018-09-05 15:00:00 28 11 Sur 29 Sur 0 -- -- 58
2018-09-05 14:00:00 27 13 Sur 24 Sur 0 -- -- 60
2018-09-05 13:00:00 26.7 10 Sur 23 Sur 0 -- -- 62
2018-09-05 12:00:00 26.3 7 Sudoeste 17 Sur 0 -- -- 58
2018-09-05 11:00:00 24.9 9 Sur 22 Sur 0 -- -- 62
2018-09-05 10:00:00 23.5 8 Sur 11 Sur 0 -- -- 63
2018-09-05 09:00:00 20.2 0 Calma 5 Sudoeste 0 -- -- 72
2018-09-05 08:00:00 18.1 4 Nordeste 14 Nordeste 0 -- -- 75
2018-09-05 07:00:00 17.2 2 Norte 7 Norte 0 -- -- 77
2018-09-05 06:00:00 18.1 0 Calma 12 Nordeste 0 -- -- 74
2018-09-05 05:00:00 17.9 2 Norte 14 Nordeste 0 -- -- 77
2018-09-05 04:00:00 18.4 7 Nordeste 15 Norte 0 -- -- 75
2018-09-05 03:00:00 18.7 4 Norte 12 Norte 0 -- -- 75
2018-09-05 02:00:00 19 3 Nordeste 9 Nordeste 0 -- -- 74
2018-09-05 01:00:00 18.9 4 Norte 10 Nordeste 0 -- -- 75
2018-09-05 00:00:00 19.1 5 Nordeste 8 Norte 0 -- -- 74
2018-09-04 23:00:00 20 4 Nordeste 7 Nordeste 0 -- -- 72
2018-09-04 22:00:00 21.1 5 Este 8 Norte 0 -- -- 68
2018-09-04 21:00:00 22.1 2 Sudoeste 9 Sudoeste 0 -- -- 64
2018-09-04 20:00:00 22.9 5 Noroeste 14 Noroeste 0 -- -- 62
2018-09-04 19:00:00 23.2 4 Oeste 15 Sudoeste 0 -- -- 66
2018-09-04 18:00:00 25.3 8 Sur 27 Sudeste 0 -- -- 56
2018-09-04 17:00:00 27.6 16 Sur 31 Sur 0 -- -- 45
2018-09-04 16:00:00 29.2 15 Sur 27 Sur 0 -- -- 43
2018-09-04 15:00:00 29 10 Sur 23 Sur 0 -- -- 44
2018-09-04 14:00:00 27.9 12 Sur 24 Sur 0 -- -- 49
2018-09-04 13:00:00 27.9 12 Sur 18 Sur 0 -- -- 51
2018-09-04 12:00:00 27.2 9 Sudoeste 19 Sur 0 -- -- 50
2018-09-04 11:00:00 25.6 6 Sudoeste 14 Sudoeste 0 -- -- 56
2018-09-04 10:00:00 23.5 8 Oeste 13 Sudoeste 0 -- -- 71
2018-09-04 09:00:00 21.8 6 Sudeste 18 Nordeste 0 -- -- 75
2018-09-04 08:00:00 19.9 7 Nordeste 13 Norte 0 -- -- 83
2018-09-04 07:00:00 19.3 4 Norte 8 Nordeste 0 -- -- 84
2018-09-04 06:00:00 20.3 4 Noroeste 17 Norte 0 -- -- 79
2018-09-04 05:00:00 19.7 7 Nordeste 12 Nordeste 0 -- -- 83
2018-09-04 04:00:00 19.9 10 Nordeste 17 Nordeste 0 -- -- 82
2018-09-04 03:00:00 18.9 0 Calma 11 Nordeste 0 -- -- 87
2018-09-04 02:00:00 19.2 4 Noroeste 15 Nordeste 0 -- -- 86
2018-09-04 01:00:00 18.7 6 Nordeste 14 Nordeste 0 -- -- 88
2018-09-04 00:00:00 18.4 4 Este 10 Nordeste 0 -- -- 87
2018-09-03 23:00:00 19.2 9 Nordeste 14 Norte 0 -- -- 85
2018-09-03 22:00:00 19.6 8 Este 33 Oeste 0 -- -- 85
2018-09-03 21:00:00 20 8 Norte 18 Este 0.2 -- -- 85
2018-09-03 20:00:00 21.9 10 Oeste 15 Oeste 0 -- -- 68
2018-09-03 19:00:00 22.9 4 Sudoeste 19 Sur 0 -- -- 63
2018-09-03 18:00:00 24.1 13 Sudoeste 26 Sudoeste 0 -- -- 61
2018-09-03 17:00:00 27.3 13 Sur 23 Sur 0 -- -- 55
2018-09-03 16:00:00 27.2 12 Sudoeste 23 Sur 0 -- -- 55
2018-09-03 15:00:00 26.8 13 Sudoeste 27 Sudeste 0 -- -- 52
2018-09-03 14:00:00 26.1 9 Sur 18 Sudoeste 0 -- -- 54
2018-09-03 13:00:00 24.1 7 Sur 21 Sur 0 -- -- 61
2018-09-03 12:00:00 23.8 10 Sur 17 Sur 0 -- -- 65
2018-09-03 11:00:00 23.2 4 Sudoeste 7 Sur 0 -- -- 59
2018-09-03 10:00:00 21.8 3 Sudoeste 12 Nordeste 0 -- -- 61
2018-09-03 09:00:00 20.7 4 Sudeste 22 Nordeste 0 -- -- 61
2018-09-03 08:00:00 18.8 13 Nordeste 22 Nordeste 0 -- -- 64
2018-09-03 07:00:00 18.1 17 Nordeste 22 Nordeste 0 -- -- 64
2018-09-03 06:00:00 17.2 14 Nordeste 21 Nordeste 0 -- -- 62
2018-09-03 05:00:00 16.2 5 Norte 12 Nordeste 0 -- -- 61
2018-09-03 04:00:00 17.7 9 Nordeste 14 Nordeste 0 -- -- 57
2018-09-03 03:00:00 17.4 6 Nordeste 13 Nordeste 0 -- -- 60
2018-09-03 02:00:00 16.3 5 Nordeste 13 Nordeste 0 -- -- 65
2018-09-03 01:00:00 15.8 4 Nordeste 9 Norte 0 -- -- 70
2018-09-03 00:00:00 16.4 3 Nordeste 10 Nordeste 0 -- -- 68
2018-09-02 23:00:00 17.1 4 Nordeste 8 Nordeste 0 -- -- 66
2018-09-02 22:00:00 18.2 4 Nordeste 9 Nordeste 0 -- -- 61
2018-09-02 21:00:00 20.1 3 Norte 5 Sudeste 0 -- -- 58
2018-09-02 20:00:00 22 4 Sudeste 11 Sudeste 0 -- -- 54
2018-09-02 19:00:00 23.2 8 Sur 17 Sur 0 -- -- 44
2018-09-02 18:00:00 24.4 9 Sur 19 Sur 0 -- -- 41
2018-09-02 17:00:00 25.6 12 Sur 23 Sur 0 -- -- 41
2018-09-02 16:00:00 26.1 14 Sur 27 Sur 0 -- -- 40
2018-09-02 15:00:00 28.1 13 Sur 26 Sur 0 -- -- 38
2018-09-02 14:00:00 28.4 8 Sur 18 Sur 0 -- -- 39
2018-09-02 13:00:00 27.2 8 Sudoeste 18 Oeste 0 -- -- 42
2018-09-02 12:00:00 25.4 9 Sudoeste 28 Sudoeste 0 -- -- 44
2018-09-02 11:00:00 24.8 4 Sur 13 Sudoeste 0 -- -- 36
2018-09-02 10:00:00 22.8 4 Sur 9 Sur 0 -- -- 40
2018-09-02 09:00:00 19.7 3 Sur 13 Nordeste 0 -- -- 47
2018-09-02 08:00:00 16.2 6 Nordeste 13 Nordeste 0 -- -- 54
2018-09-02 07:00:00 15.6 6 Nordeste 10 Nordeste 0 -- -- 54
2018-09-02 06:00:00 17.1 7 Norte 15 Nordeste 0 -- -- 49
2018-09-02 05:00:00 16.5 8 Norte 15 Norte 0 -- -- 50
2018-09-02 04:00:00 15.7 4 Nordeste 10 Norte 0 -- -- 51
2018-09-02 03:00:00 16.6 4 Norte 9 Este 0 -- -- 47
2018-09-02 02:00:00 16.7 4 Norte 12 Norte 0 -- -- 47
2018-09-02 01:00:00 17.4 2 Nordeste 11 Este 0 -- -- 48
2018-09-02 00:00:00 19.1 3 Norte 11 Norte 0 -- -- 48
2018-09-01 23:00:00 21.6 4 Oeste 20 Sur 0 -- -- 47
2018-09-01 22:00:00 22.5 5 Sudoeste 16 Norte 0 -- -- 51
2018-09-01 21:00:00 25 12 Norte 26 Nordeste 0 -- -- 34
2018-09-01 20:00:00 26.3 18 Norte 41 Norte 0 -- -- 32
2018-09-01 19:00:00 28.2 20 Norte 42 Norte 0 -- -- 31
2018-09-01 18:00:00 29.3 21 Norte 41 Norte 0 -- -- 28
2018-09-01 17:00:00 29.7 22 Norte 41 Nordeste 0 -- -- 29
2018-09-01 16:00:00 29.6 24 Norte 45 Norte 0 -- -- 31
2018-09-01 15:00:00 29.6 21 Norte 42 Noroeste 0 -- -- 34
2018-09-01 14:00:00 28.3 26 Norte 48 Norte 0 -- -- 38
2018-09-01 13:00:00 27.7 23 Norte 46 Norte 0 -- -- 41
2018-09-01 12:00:00 26.2 28 Norte 57 Norte 0 -- -- 44
2018-09-01 11:00:00 25.2 28 Norte 52 Norte 0 -- -- 47
2018-09-01 10:00:00 23.8 26 Norte 46 Norte 0 -- -- 51
2018-09-01 09:00:00 21.9 6 Sudoeste 18 Oeste 0 -- -- 59
2018-09-01 08:00:00 21.2 8 Noroeste 31 Norte 0 -- -- 62
2018-09-01 07:00:00 21.8 19 Norte 39 Norte 0 -- -- 60
2018-09-01 06:00:00 22.1 17 Norte 34 Norte 0 -- -- 59
2018-09-01 05:00:00 21.9 15 Norte 31 Noroeste 0 -- -- 60
2018-09-01 04:00:00 22.2 16 Norte 35 Norte 0 -- -- 58
2018-09-01 03:00:00 22.3 14 Noroeste 39 Noroeste 0 -- -- 58
2018-09-01 02:00:00 22.8 18 Norte 35 Noroeste 0 -- -- 56
2018-09-01 01:00:00 23.1 16 Norte 32 Noroeste 0 -- -- 55
2018-09-01 00:00:00 22.6 11 Norte 21 Norte 0 -- -- 55
2018-08-31 23:00:00 22.2 3 Sudoeste 21 Norte 0 -- -- 66
2018-08-31 22:00:00 21.5 4 Nordeste 11 Este 0 -- -- 65
2018-08-31 21:00:00 21.7 5 Nordeste 8 Sudeste 0 -- -- 70
2018-08-31 20:00:00 23.8 4 Sudoeste 10 Sudoeste 0 -- -- 64
2018-08-31 19:00:00 25 6 Sur 12 Sur 0 -- -- 57
2018-08-31 18:00:00 24 8 Sur 17 Oeste 0 -- -- 62
2018-08-31 17:00:00 24.9 12 Sudoeste 22 Sur 0 -- -- 57
2018-08-31 16:00:00 26.3 14 Sudoeste 27 Sur 0 -- -- 53
2018-08-31 15:00:00 26.8 14 Sur 24 Sudeste 0 -- -- 41
2018-08-31 14:00:00 27.2 3 Norte 21 Este 0 -- -- 39
2018-08-31 13:00:00 26 10 Norte 23 Noroeste 0 -- -- 39
2018-08-31 12:00:00 25.5 8 Este 28 Norte 0 -- -- 38
2018-08-31 11:00:00 24.6 9 Norte 32 Noroeste 0 -- -- 39
2018-08-31 10:00:00 23.3 9 Este 49 Norte 0 -- -- 44
2018-08-31 09:00:00 22.7 20 Norte 38 Norte 0 -- -- 46
2018-08-31 08:00:00 22.5 12 Nordeste 39 Norte 0 -- -- 45
2018-08-31 07:00:00 22.3 14 Norte 37 Noroeste 0 -- -- 46
2018-08-31 06:00:00 22.5 10 Norte 28 Norte 0 -- -- 49
2018-08-31 05:00:00 22.6 11 Norte 23 Norte 0 -- -- 51
2018-08-31 04:00:00 21.6 3 Sur 5 Sur 0 -- -- 60
2018-08-31 03:00:00 21.8 4 Nordeste 11 Nordeste 0 -- -- 59
2018-08-31 02:00:00 22.2 5 Noroeste 11 Este 0 -- -- 58
2018-08-31 01:00:00 22.9 6 Sur 12 Sudoeste 0 -- -- 56
2018-08-31 00:00:00 23.3 7 Sur 15 Noroeste 0 -- -- 53
2018-08-30 23:00:00 23.3 9 Noroeste 17 Noroeste 0 -- -- 57
2018-08-30 22:00:00 23.8 0 Calma 11 Este 0 -- -- 56
2018-08-30 21:00:00 24.4 3 Este 8 Sudoeste 0 -- -- 55
2018-08-30 20:00:00 25 6 Sudoeste 15 Sur 0 -- -- 52
2018-08-30 19:00:00 26.1 6 Sudoeste 18 Sudoeste 0 -- -- 51
2018-08-30 18:00:00 27.5 7 Sur 17 Sur 0 -- -- 47
2018-08-30 17:00:00 27.2 10 Sur 18 Sur 0 -- -- 47
2018-08-30 16:00:00 28.1 8 Sur 18 Sudeste 0 -- -- 45
2018-08-30 15:00:00 28.5 10 Sur 19 Sur 0 -- -- 44
2018-08-30 14:00:00 28.2 9 Sur 20 Noroeste 0 -- -- 44
2018-08-30 13:00:00 29 12 Oeste 22 Noroeste 0 -- -- 42
2018-08-30 12:00:00 28 10 Oeste 21 Noroeste 0 -- -- 46
2018-08-30 11:00:00 26.2 12 Sudoeste 18 Sudoeste 0 -- -- 54
2018-08-30 10:00:00 23.9 7 Sur 10 Sur 0 -- -- 62
2018-08-30 09:00:00 22.5 5 Sur 8 Sur 0 -- -- 68
2018-08-30 08:00:00 19.4 3 Nordeste 8 Nordeste 0 -- -- 75
2018-08-30 07:00:00 19.1 2 Norte 8 Norte 0 -- -- 76
2018-08-30 06:00:00 21.1 0 Calma 22 Nordeste 0 -- -- 69
2018-08-30 05:00:00 22.6 14 Nordeste 24 Nordeste 0 -- -- 64
2018-08-30 04:00:00 23.4 15 Nordeste 35 Noroeste 0 -- -- 62
2018-08-30 03:00:00 23.7 18 Noroeste 31 Oeste 0 -- -- 63
2018-08-30 02:00:00 24.9 12 Sudeste 53 Norte 0 -- -- 58
2018-08-30 01:00:00 25.6 18 Norte 47 Norte 0 -- -- 57
2018-08-30 00:00:00 26.2 23 Norte 53 Norte 0 -- -- 53
2018-08-29 23:00:00 26.1 12 Nordeste 33 Norte 0 -- -- 51
2018-08-29 22:00:00 26.7 12 Nordeste 30 Norte 0 -- -- 49
2018-08-29 21:00:00 26.2 7 Nordeste 27 Norte 0 -- -- 51
2018-08-29 20:00:00 25.1 5 Sur 27 Noroeste 0 -- -- 58
2018-08-29 19:00:00 26.9 14 Noroeste 28 Noroeste 0 -- -- 48
2018-08-29 18:00:00 26.5 19 Noroeste 41 Nordeste 0 -- -- 50
2018-08-29 17:00:00 27.4 17 Norte 37 Este 0 -- -- 50
2018-08-29 16:00:00 29.2 23 Este 40 Este 0 -- -- 48
2018-08-29 15:00:00 31.1 19 Este 44 Este 0 -- -- 43
2018-08-29 14:00:00 31 20 Este 39 Este 0 -- -- 44
2018-08-29 13:00:00 31 17 Nordeste 30 Este 0 -- -- 47
2018-08-29 12:00:00 30.1 13 Nordeste 28 Nordeste 0 -- -- 43
2018-08-29 11:00:00 28.4 7 Sur 12 Sur 0 -- -- 54
2018-08-29 10:00:00 24.6 0 Calma 11 Sudoeste 0 -- -- 76
2018-08-29 09:00:00 24.6 5 Sur 10 Nordeste 0 -- -- 71
2018-08-29 08:00:00 21.8 3 Nordeste 10 Norte 0 -- -- 77
2018-08-29 07:00:00 22.3 2 Norte 10 Sur 0 -- -- 76
2018-08-29 06:00:00 23.6 8 Sur 14 Sudoeste 0 -- -- 70
2018-08-29 05:00:00 22.7 8 Nordeste 44 Sudeste 0 -- -- 83
2018-08-29 04:00:00 25 19 Sudeste 42 Sudeste 0 -- -- 72
2018-08-29 03:00:00 23.3 4 Sudeste 15 Oeste 0 -- -- 81
2018-08-29 02:00:00 23.5 6 Noroeste 15 Norte 0 -- -- 82
2018-08-29 01:00:00 23.6 7 Nordeste 13 Este 0 -- -- 81
2018-08-29 00:00:00 23.8 3 Nordeste 12 Nordeste 0 -- -- 81
2018-08-28 23:00:00 24.2 3 Sudeste 7 Noroeste 0 -- -- 79
2018-08-28 22:00:00 25.4 0 Calma 9 Nordeste 0 -- -- 72
2018-08-28 21:00:00 27.2 3 Este 14 Sudeste 0 -- -- 66
2018-08-28 20:00:00 28.2 11 Sudeste 23 Sudeste 0 -- -- 63
2018-08-28 19:00:00 29.5 15 Sur 24 Sur 0 -- -- 63
2018-08-28 18:00:00 29.7 12 Sudeste 26 Sur 0 -- -- 62
2018-08-28 17:00:00 30.3 15 Sur 26 Sur 0 -- -- 57
2018-08-28 16:00:00 31.8 12 Sur 23 Sur 0 -- -- 50
2018-08-28 15:00:00 31.8 10 Sudeste 25 Sur 0 -- -- 47
2018-08-28 14:00:00 31.5 15 Sudeste 26 Sur 0 -- -- 48
2018-08-28 13:00:00 30.8 6 Sudoeste 22 Sudeste 0 -- -- 47
2018-08-28 12:00:00 29.9 11 Sur 21 Sur 0 -- -- 45
2018-08-28 11:00:00 28.8 6 Sur 14 Sudeste 0 -- -- 46
2018-08-28 10:00:00 26.7 5 Sudoeste 8 Sudoeste 0 -- -- 56
2018-08-28 09:00:00 24.2 3 Sur 8 Nordeste 0 -- -- 64
2018-08-28 08:00:00 20.5 0 Calma 6 Nordeste 0 -- -- 71
2018-08-28 07:00:00 20 2 Noroeste 12 Nordeste 0 -- -- 71
2018-08-28 06:00:00 20.2 10 Norte 13 Nordeste 0 -- -- 68
2018-08-28 05:00:00 20.5 9 Nordeste 18 Nordeste 0 -- -- 66
2018-08-28 04:00:00 19.1 3 Nordeste 10 Nordeste 0 -- -- 71
2018-08-28 03:00:00 18.7 6 Nordeste 12 Nordeste 0 -- -- 73
2018-08-28 02:00:00 19.6 3 Noroeste 13 Nordeste 0 -- -- 70
2018-08-28 01:00:00 19.2 6 Nordeste 12 Nordeste 0 -- -- 71
2018-08-28 00:00:00 19.9 5 Norte 9 Norte 0 -- -- 68
2018-08-27 23:00:00 20.3 4 Nordeste 8 Norte 0 -- -- 65
2018-08-27 22:00:00 21.2 5 Norte 7 Norte 0 -- -- 61
2018-08-27 21:00:00 23.4 0 Calma 8 Sur 0 -- -- 55
2018-08-27 20:00:00 25.3 4 Sur 12 Sudoeste 0 -- -- 49
2018-08-27 19:00:00 26.6 7 Sur 17 Sur 0 -- -- 43
2018-08-27 18:00:00 27.6 11 Sur 22 Sur 0 -- -- 46
2018-08-27 17:00:00 28.9 13 Sur 29 Sudeste 0 -- -- 44
2018-08-27 16:00:00 29.8 18 Sur 28 Sudeste 0 -- -- 40
2018-08-27 15:00:00 30.2 8 Sur 25 Sur 0 -- -- 39
2018-08-27 14:00:00 30.3 8 Sur 21 Sur 0 -- -- 40
2018-08-27 13:00:00 29.2 9 Sur 25 Sudoeste 0 -- -- 42
2018-08-27 12:00:00 28.1 7 Sur 19 Sur 0 -- -- 44
2018-08-27 11:00:00 27.1 3 Nordeste 12 Sur 0 -- -- 44
2018-08-27 10:00:00 24.7 5 Sur 8 Sur 0 -- -- 51
2018-08-27 09:00:00 21.2 3 Sur 12 Sur 0 -- -- 61
2018-08-27 08:00:00 17.2 3 Nordeste 7 Nordeste 0 -- -- 74
2018-08-27 07:00:00 16 4 Nordeste 10 Nordeste 0 -- -- 73
2018-08-27 06:00:00 15.4 3 Nordeste 8 Norte 0 -- -- 77
2018-08-27 05:00:00 15.9 2 Nordeste 10 Sur 0 -- -- 75
2018-08-27 04:00:00 16 7 Nordeste 15 Norte 0 -- -- 76
2018-08-27 03:00:00 16 5 Norte 11 Norte 0 -- -- 79
2018-08-27 02:00:00 15.7 3 Nordeste 12 Sudoeste 0 -- -- 84
2018-08-27 01:00:00 16.6 5 Norte 13 Nordeste 0 -- -- 81
2018-08-27 00:00:00 17.4 5 Nordeste 8 Nordeste 0 -- -- 79
2018-08-26 23:00:00 18.5 3 Norte 10 Norte 0 -- -- 75
2018-08-26 22:00:00 19.3 6 Nordeste 10 Nordeste 0 -- -- 75
2018-08-26 21:00:00 21.3 0 Calma 11 Sur 0 -- -- 70
2018-08-26 20:00:00 22.9 7 Sudoeste 15 Sur 0 -- -- 64
2018-08-26 19:00:00 24.8 7 Sudoeste 19 Sur 0 -- -- 57
2018-08-26 18:00:00 25.6 14 Sur 24 Sur 0 -- -- 52
2018-08-26 17:00:00 25.9 14 Sur 34 Sudeste 0 -- -- 47
2018-08-26 16:00:00 27.7 19 Sur 32 Sur 0 -- -- 42
2018-08-26 15:00:00 28.3 8 Sur 19 Sudoeste 0 -- -- 40
2018-08-26 14:00:00 27.4 7 Oeste 18 Noroeste 0 -- -- 39
2018-08-26 13:00:00 26.4 9 Noroeste 27 Norte 0 -- -- 40
2018-08-26 12:00:00 25.3 14 Norte 28 Norte 0 -- -- 41
2018-08-26 11:00:00 23.7 9 Norte 38 Nordeste 0 -- -- 43
2018-08-26 10:00:00 22.7 13 Nordeste 30 Nordeste 0 -- -- 45
2018-08-26 09:00:00 21.1 14 Norte 32 Nordeste 0 -- -- 50
2018-08-26 08:00:00 20.5 14 Nordeste 40 Norte 0 -- -- 52
2018-08-26 07:00:00 19.1 14 Nordeste 45 Norte 0 -- -- 56
2018-08-26 06:00:00 19.5 21 Norte 50 Norte 0 -- -- 53
2018-08-26 05:00:00 19.6 22 Norte 58 Norte 0 -- -- 52
2018-08-26 04:00:00 20 30 Norte 62 Norte 0 -- -- 49
2018-08-26 03:00:00 20.1 31 Norte 63 Norte 0 -- -- 48
2018-08-26 02:00:00 20.2 32 Norte 61 Norte 0 -- -- 47
2018-08-26 01:00:00 20.5 28 Norte 63 Norte 0 -- -- 44
2018-08-26 00:00:00 20.7 32 Norte 72 Norte 0 -- -- 38
2018-08-25 23:00:00 20.7 32 Norte 67 Norte 0 -- -- 37
2018-08-25 22:00:00 20.4 31 Norte 75 Norte 0 -- -- 48
2018-08-25 21:00:00 20.3 37 Norte 69 Norte 0 -- -- 52
2018-08-25 20:00:00 20.3 13 Norte 45 Nordeste 0 -- -- 56
2018-08-25 19:00:00 21.2 15 Norte 39 Nordeste 0 -- -- 51
2018-08-25 18:00:00 22.6 12 Nordeste 28 Norte 0 -- -- 46
2018-08-25 17:00:00 23.5 15 Norte 37 Nordeste 0 -- -- 43
2018-08-25 16:00:00 23.5 19 Norte 35 Nordeste 0 -- -- 45
2018-08-25 15:00:00 24.7 20 Norte 34 Norte 0 -- -- 42
2018-08-25 14:00:00 25.3 13 Norte 26 Nordeste 0 -- -- 43
2018-08-25 13:00:00 25.6 12 Nordeste 33 Nordeste 0 -- -- 40
2018-08-25 12:00:00 25.3 9 Nordeste 28 Noroeste 0 -- -- 40
2018-08-25 11:00:00 24.1 15 Nordeste 27 Norte 0 -- -- 43
2018-08-25 10:00:00 22.4 2 Sudoeste 8 Sur 0 -- -- 56
2018-08-25 09:00:00 20.8 4 Sur 8 Sur 0 -- -- 62
2018-08-25 08:00:00 20.5 2 Sudeste 8 Este 0 -- -- 64
2018-08-25 07:00:00 20.3 5 Este 9 Este 0 -- -- 63
2018-08-25 06:00:00 20.8 0 Calma 13 Este 0 -- -- 61
2018-08-25 05:00:00 21.1 8 Este 26 Norte 0 -- -- 58
2018-08-25 04:00:00 21.8 10 Norte 37 Norte 0 -- -- 55
2018-08-25 03:00:00 22 17 Norte 34 Norte 0 -- -- 55
2018-08-25 02:00:00 22.1 19 Norte 41 Norte 0 -- -- 54
2018-08-25 01:00:00 22.5 22 Norte 46 Nordeste 0 -- -- 53
2018-08-25 00:00:00 23 15 Norte 37 Norte 0 -- -- 52